createdAt,value
2019-03-13T00:00:24.604Z,19.00
2019-03-13T00:01:24.555Z,19.00
2019-03-13T00:02:24.558Z,18.94
2019-03-13T00:03:24.558Z,19.06
2019-03-13T00:04:24.411Z,18.94
2019-03-13T00:05:24.365Z,18.98
2019-03-13T00:06:24.315Z,19.02
2019-03-13T00:07:24.269Z,18.94
2019-03-13T00:08:24.223Z,18.98
2019-03-13T00:09:24.173Z,18.99
2019-03-13T00:10:24.125Z,18.99
2019-03-13T00:11:24.077Z,19.06
2019-03-13T00:12:24.029Z,18.99
2019-03-13T00:13:23.981Z,19.04
2019-03-13T00:14:23.983Z,19.02
2019-03-13T00:15:23.885Z,19.02
2019-03-13T00:16:23.838Z,19.00
2019-03-13T00:17:23.789Z,19.04
2019-03-13T00:18:23.741Z,18.98
2019-03-13T00:19:23.696Z,19.04
2019-03-13T00:20:23.646Z,19.04
2019-03-13T00:21:23.603Z,19.11
2019-03-13T00:22:23.550Z,19.00
2019-03-13T00:23:23.504Z,19.02
2019-03-13T00:24:23.455Z,19.04
2019-03-13T00:25:23.406Z,19.04
2019-03-13T00:26:23.361Z,18.99
2019-03-13T00:27:23.314Z,19.00
2019-03-13T00:28:23.262Z,18.98
2019-03-13T00:29:23.315Z,19.02
2019-03-13T00:30:23.166Z,18.99
2019-03-13T00:31:23.148Z,18.95
2019-03-13T00:32:23.072Z,18.99
2019-03-13T00:33:23.025Z,19.00
2019-03-13T00:34:23.025Z,18.95
2019-03-13T00:35:23.028Z,19.00
2019-03-13T00:36:22.880Z,18.98
2019-03-13T00:37:22.831Z,19.00
2019-03-13T00:38:22.784Z,19.00
2019-03-13T00:39:22.741Z,18.99
2019-03-13T00:40:22.688Z,19.04
2019-03-13T00:41:22.641Z,18.99
2019-03-13T00:42:22.595Z,18.99
2019-03-13T00:43:22.630Z,19.02
2019-03-13T00:44:22.496Z,19.02
2019-03-13T00:45:22.448Z,18.95
2019-03-13T00:46:22.400Z,19.02
2019-03-13T00:47:22.353Z,18.99
2019-03-13T00:48:22.311Z,18.99
2019-03-13T00:49:22.261Z,18.95
2019-03-13T00:50:22.207Z,18.91
2019-03-13T00:51:22.161Z,18.99
2019-03-13T00:52:22.113Z,18.98
2019-03-13T00:53:22.069Z,19.02
2019-03-13T00:54:22.019Z,19.06
2019-03-13T00:55:21.969Z,18.99
2019-03-13T00:56:21.971Z,19.02
2019-03-13T00:57:21.873Z,19.02
2019-03-13T00:58:25.111Z,19.02
2019-03-13T00:59:21.782Z,19.06
2019-03-13T01:00:21.732Z,18.99
2019-03-13T01:01:21.683Z,19.02
2019-03-13T01:02:21.634Z,18.99
2019-03-13T01:03:21.586Z,19.02
2019-03-13T01:04:21.538Z,19.02
2019-03-13T01:05:21.490Z,19.04
2019-03-13T01:06:21.443Z,19.04
2019-03-13T01:07:21.408Z,19.02
2019-03-13T01:08:21.347Z,19.04
2019-03-13T01:09:21.298Z,19.00
2019-03-13T01:10:21.250Z,18.99
2019-03-13T01:11:21.203Z,18.98
2019-03-13T01:12:21.192Z,18.98
2019-03-13T01:13:21.107Z,19.00
2019-03-13T01:14:21.058Z,19.07
2019-03-13T01:15:21.011Z,19.06
2019-03-13T01:16:20.964Z,19.04
2019-03-13T01:17:21.233Z,19.00
2019-03-13T01:18:20.867Z,19.04
2019-03-13T01:19:20.818Z,19.11
2019-03-13T01:20:20.778Z,19.07
2019-03-13T01:21:20.723Z,19.10
2019-03-13T01:22:20.677Z,19.02
2019-03-13T01:23:20.627Z,19.00
2019-03-13T01:24:20.580Z,19.00
2019-03-13T01:25:20.534Z,19.00
2019-03-13T01:26:20.489Z,19.02
2019-03-13T01:27:20.441Z,19.06
2019-03-13T01:28:20.390Z,18.95
2019-03-13T01:29:20.341Z,19.07
2019-03-13T01:30:20.293Z,19.06
2019-03-13T01:31:20.246Z,19.07
2019-03-13T01:32:20.198Z,19.02
2019-03-13T01:33:20.288Z,19.07
2019-03-13T01:34:20.102Z,19.04
2019-03-13T01:35:20.057Z,19.06
2019-03-13T01:36:20.006Z,19.04
2019-03-13T01:37:19.958Z,19.07
2019-03-13T01:38:19.913Z,19.06
2019-03-13T01:39:19.863Z,19.02
2019-03-13T01:40:19.814Z,19.00
2019-03-13T01:41:19.766Z,19.06
2019-03-13T01:42:19.722Z,19.10
2019-03-13T01:43:19.671Z,19.10
2019-03-13T01:44:19.624Z,19.07
2019-03-13T01:45:19.575Z,19.11
2019-03-13T01:46:19.527Z,19.07
2019-03-13T01:47:19.482Z,19.10
2019-03-13T01:48:19.432Z,19.02
2019-03-13T01:49:19.383Z,19.11
2019-03-13T01:50:19.336Z,19.07
2019-03-13T01:51:19.289Z,19.07
2019-03-13T01:52:19.241Z,19.02
2019-03-13T01:53:19.192Z,19.02
2019-03-13T01:54:19.147Z,19.11
2019-03-13T01:55:19.098Z,19.07
2019-03-13T01:56:19.051Z,19.13
2019-03-13T01:57:19.001Z,19.02
2019-03-13T01:58:19.005Z,19.07
2019-03-13T01:59:18.906Z,19.06
2019-03-13T02:00:18.858Z,19.10
2019-03-13T02:01:18.809Z,19.07
2019-03-13T02:02:18.788Z,19.13
2019-03-13T02:03:18.714Z,19.04
2019-03-13T02:04:18.668Z,19.04
2019-03-13T02:05:18.618Z,18.95
2019-03-13T02:06:18.577Z,19.04
2019-03-13T02:07:18.523Z,19.02
2019-03-13T02:08:18.481Z,19.14
2019-03-13T02:09:18.426Z,19.04
2019-03-13T02:10:18.381Z,19.11
2019-03-13T02:11:18.332Z,19.08
2019-03-13T02:12:18.284Z,19.00
2019-03-13T02:13:18.239Z,19.06
2019-03-13T02:14:18.192Z,19.08
2019-03-13T02:15:18.140Z,19.02
2019-03-13T02:16:18.091Z,19.07
2019-03-13T02:17:18.044Z,19.00
2019-03-13T02:18:17.998Z,19.07
2019-03-13T02:19:17.950Z,19.06
2019-03-13T02:20:18.001Z,19.02
2019-03-13T02:21:17.853Z,19.08
2019-03-13T02:22:17.810Z,19.00
2019-03-13T02:23:17.759Z,19.07
2019-03-13T02:24:17.710Z,19.04
2019-03-13T02:25:17.662Z,19.02
2019-03-13T02:26:17.619Z,19.04
2019-03-13T02:27:17.570Z,18.98
2019-03-13T02:28:17.519Z,19.00
2019-03-13T02:29:17.521Z,18.99
2019-03-13T02:30:17.424Z,19.04
2019-03-13T02:31:17.376Z,19.07
2019-03-13T02:32:17.330Z,19.00
2019-03-13T02:33:17.281Z,19.04
2019-03-13T02:34:17.232Z,19.02
2019-03-13T02:35:17.185Z,19.06
2019-03-13T02:36:17.137Z,19.06
2019-03-13T02:37:17.092Z,19.06
2019-03-13T02:38:17.046Z,18.99
2019-03-13T02:39:16.992Z,19.11
2019-03-13T02:40:16.995Z,18.95
2019-03-13T02:41:16.920Z,18.99
2019-03-13T02:42:16.853Z,18.99
2019-03-13T02:43:16.802Z,19.00
2019-03-13T02:44:16.777Z,18.98
2019-03-13T02:45:16.708Z,18.94
2019-03-13T02:46:16.658Z,18.95
2019-03-13T02:47:19.014Z,18.95
2019-03-13T02:48:16.566Z,18.95
2019-03-13T02:49:16.516Z,19.00
2019-03-13T02:50:16.466Z,18.98
2019-03-13T02:51:16.421Z,18.99
2019-03-13T02:52:16.372Z,18.99
2019-03-13T02:53:16.336Z,18.99
2019-03-13T02:54:16.274Z,19.00
2019-03-13T02:55:16.227Z,19.00
2019-03-13T02:56:16.180Z,19.00
2019-03-13T02:57:16.130Z,19.00
2019-03-13T02:58:16.085Z,18.99
2019-03-13T02:59:16.039Z,19.06
2019-03-13T03:00:16.048Z,18.99
2019-03-13T03:01:15.989Z,18.99
2019-03-13T03:02:15.893Z,19.00
2019-03-13T03:03:15.845Z,18.98
2019-03-13T03:04:15.805Z,18.98
2019-03-13T03:05:15.773Z,19.02
2019-03-13T03:06:15.700Z,18.95
2019-03-13T03:07:15.653Z,19.00
2019-03-13T03:08:15.606Z,18.99
2019-03-13T03:09:15.564Z,19.04
2019-03-13T03:10:15.516Z,18.94
2019-03-13T03:11:15.461Z,18.95
2019-03-13T03:12:15.458Z,19.00
2019-03-13T03:13:15.370Z,19.00
2019-03-13T03:14:15.320Z,19.00
2019-03-13T03:15:15.271Z,19.02
2019-03-13T03:16:15.222Z,18.95
2019-03-13T03:17:15.172Z,19.04
2019-03-13T03:18:15.133Z,19.00
2019-03-13T03:19:15.084Z,18.98
2019-03-13T03:20:15.037Z,19.02
2019-03-13T03:21:14.983Z,19.04
2019-03-13T03:22:14.936Z,18.98
2019-03-13T03:23:14.886Z,18.99
2019-03-13T03:24:14.839Z,19.02
2019-03-13T03:25:14.791Z,18.95
2019-03-13T03:26:14.754Z,19.04
2019-03-13T03:27:14.695Z,19.04
2019-03-13T03:28:14.648Z,18.94
2019-03-13T03:29:14.623Z,19.00
2019-03-13T03:30:14.553Z,18.99
2019-03-13T03:31:14.504Z,19.02
2019-03-13T03:32:14.460Z,18.99
2019-03-13T03:33:14.421Z,18.99
2019-03-13T03:34:14.391Z,18.94
2019-03-13T03:35:14.318Z,18.98
2019-03-13T03:36:14.267Z,18.94
2019-03-13T03:37:14.226Z,18.95
2019-03-13T03:38:14.169Z,18.98
2019-03-13T03:39:14.122Z,18.94
2019-03-13T03:40:14.075Z,19.02
2019-03-13T03:41:14.026Z,19.02
2019-03-13T03:42:14.028Z,19.02
2019-03-13T03:43:13.933Z,19.00
2019-03-13T03:44:13.883Z,19.02
2019-03-13T03:45:13.834Z,19.04
2019-03-13T03:46:13.786Z,18.94
2019-03-13T03:47:13.739Z,19.02
2019-03-13T03:48:13.693Z,19.02
2019-03-13T03:49:13.643Z,19.02
2019-03-13T03:50:13.595Z,19.00
2019-03-13T03:51:13.549Z,19.04
2019-03-13T03:52:13.500Z,18.99
2019-03-13T03:53:13.454Z,19.04
2019-03-13T03:54:13.404Z,19.00
2019-03-13T03:55:13.357Z,19.06
2019-03-13T03:56:13.312Z,18.99
2019-03-13T03:57:13.261Z,18.99
2019-03-13T03:58:13.217Z,18.98
2019-03-13T03:59:13.171Z,19.00
2019-03-13T04:00:13.118Z,18.99
2019-03-13T04:01:13.070Z,18.98
2019-03-13T04:02:13.022Z,18.95
2019-03-13T04:03:12.975Z,18.99
2019-03-13T04:04:12.978Z,18.99
2019-03-13T04:05:13.121Z,18.99
2019-03-13T04:06:12.831Z,19.02
2019-03-13T04:07:12.787Z,19.02
2019-03-13T04:08:12.743Z,18.95
2019-03-13T04:09:12.687Z,18.99
2019-03-13T04:10:12.641Z,19.04
2019-03-13T04:11:12.592Z,19.02
2019-03-13T04:12:12.549Z,19.00
2019-03-13T04:13:12.495Z,18.98
2019-03-13T04:14:12.447Z,18.98
2019-03-13T04:15:12.400Z,18.99
2019-03-13T04:16:12.353Z,18.99
2019-03-13T04:17:12.304Z,18.99
2019-03-13T04:18:12.256Z,19.00
2019-03-13T04:19:12.209Z,18.92
2019-03-13T04:20:12.161Z,18.95
2019-03-13T04:21:12.112Z,19.02
2019-03-13T04:22:12.065Z,18.98
2019-03-13T04:23:12.018Z,18.94
2019-03-13T04:24:11.969Z,18.99
2019-03-13T04:25:11.925Z,18.92
2019-03-13T04:26:13.072Z,18.92
2019-03-13T04:27:11.828Z,18.95
2019-03-13T04:28:11.779Z,18.99
2019-03-13T04:29:11.730Z,18.99
2019-03-13T04:30:11.681Z,18.99
2019-03-13T04:31:11.635Z,18.98
2019-03-13T04:32:11.587Z,18.95
2019-03-13T04:33:11.539Z,18.98
2019-03-13T04:34:11.493Z,18.98
2019-03-13T04:35:11.444Z,19.02
2019-03-13T04:36:11.395Z,18.91
2019-03-13T04:37:11.350Z,18.94
2019-03-13T04:38:11.304Z,18.92
2019-03-13T04:39:11.255Z,18.99
2019-03-13T04:40:11.208Z,18.95
2019-03-13T04:41:11.155Z,19.00
2019-03-13T04:42:11.110Z,18.90
2019-03-13T04:43:11.059Z,18.99
2019-03-13T04:44:11.012Z,18.94
2019-03-13T04:45:11.015Z,18.95
2019-03-13T04:46:10.919Z,18.98
2019-03-13T04:47:10.868Z,18.95
2019-03-13T04:48:10.823Z,18.91
2019-03-13T04:49:10.772Z,18.95
2019-03-13T04:50:10.725Z,18.99
2019-03-13T04:51:10.677Z,18.98
2019-03-13T04:52:10.666Z,18.91
2019-03-13T04:53:10.677Z,18.99
2019-03-13T04:54:10.533Z,18.92
2019-03-13T04:55:10.486Z,18.99
2019-03-13T04:56:10.442Z,18.95
2019-03-13T04:57:10.391Z,18.94
2019-03-13T04:58:10.343Z,19.02
2019-03-13T04:59:10.294Z,18.99
2019-03-13T05:00:10.247Z,18.99
2019-03-13T05:01:10.199Z,18.95
2019-03-13T05:02:10.150Z,19.02
2019-03-13T05:03:10.105Z,19.00
2019-03-13T05:04:10.205Z,18.95
2019-03-13T05:05:10.007Z,18.92
2019-03-13T05:06:09.959Z,18.92
2019-03-13T05:07:09.912Z,18.95
2019-03-13T05:08:09.864Z,18.95
2019-03-13T05:09:09.817Z,18.92
2019-03-13T05:10:09.768Z,19.02
2019-03-13T05:11:09.721Z,19.00
2019-03-13T05:12:09.672Z,19.02
2019-03-13T05:13:09.880Z,18.99
2019-03-13T05:14:09.580Z,18.99
2019-03-13T05:15:09.528Z,18.98
2019-03-13T05:16:09.481Z,18.99
2019-03-13T05:17:09.432Z,18.92
2019-03-13T05:18:09.385Z,19.00
2019-03-13T05:19:09.336Z,18.99
2019-03-13T05:20:09.290Z,18.95
2019-03-13T05:21:09.240Z,18.94
2019-03-13T05:22:09.236Z,18.99
2019-03-13T05:23:09.146Z,18.91
2019-03-13T05:24:09.098Z,18.95
2019-03-13T05:25:09.053Z,18.94
2019-03-13T05:26:09.114Z,18.92
2019-03-13T05:27:09.271Z,18.99
2019-03-13T05:28:08.958Z,18.98
2019-03-13T05:29:08.859Z,18.98
2019-03-13T05:30:08.811Z,19.06
2019-03-13T05:31:08.763Z,19.06
2019-03-13T05:32:08.715Z,18.99
2019-03-13T05:33:08.667Z,18.95
2019-03-13T05:34:08.620Z,18.92
2019-03-13T05:35:08.572Z,18.98
2019-03-13T05:36:08.528Z,18.90
2019-03-13T05:37:08.477Z,18.98
2019-03-13T05:38:08.429Z,18.98
2019-03-13T05:39:08.381Z,19.00
2019-03-13T05:40:08.333Z,19.00
2019-03-13T05:41:08.289Z,18.95
2019-03-13T05:42:08.238Z,18.99
2019-03-13T05:43:08.192Z,18.99
2019-03-13T05:44:08.141Z,18.98
2019-03-13T05:45:08.574Z,18.98
2019-03-13T05:46:08.045Z,18.99
2019-03-13T05:47:08.049Z,19.00
2019-03-13T05:48:08.000Z,19.02
2019-03-13T05:49:07.901Z,18.99
2019-03-13T05:50:07.854Z,18.99
2019-03-13T05:51:07.807Z,18.95
2019-03-13T05:52:07.759Z,18.99
2019-03-13T05:53:07.709Z,18.95
2019-03-13T05:54:07.663Z,18.99
2019-03-13T05:55:07.614Z,19.02
2019-03-13T05:56:07.567Z,19.10
2019-03-13T05:57:07.519Z,19.07
2019-03-13T05:58:07.470Z,19.00
2019-03-13T05:59:07.424Z,19.07
2019-03-13T06:00:07.375Z,19.02
2019-03-13T06:01:07.328Z,19.08
2019-03-13T06:02:07.284Z,19.10
2019-03-13T06:03:07.232Z,19.04
2019-03-13T06:04:07.185Z,19.07
2019-03-13T06:05:07.136Z,19.22
2019-03-13T06:06:07.092Z,19.18
2019-03-13T06:07:07.040Z,19.10
2019-03-13T06:08:07.001Z,19.19
2019-03-13T06:09:06.946Z,19.16
2019-03-13T06:10:06.955Z,19.22
2019-03-13T06:11:06.849Z,19.21
2019-03-13T06:12:06.804Z,19.16
2019-03-13T06:13:06.754Z,19.21
2019-03-13T06:14:06.705Z,19.22
2019-03-13T06:15:06.670Z,19.14
2019-03-13T06:16:06.610Z,19.19
2019-03-13T06:17:06.562Z,19.22
2019-03-13T06:18:09.560Z,19.19
2019-03-13T06:19:06.467Z,19.14
2019-03-13T06:20:06.422Z,19.13
2019-03-13T06:21:06.371Z,19.13
2019-03-13T06:22:06.323Z,19.22
2019-03-13T06:23:06.280Z,19.22
2019-03-13T06:24:06.228Z,19.21
2019-03-13T06:25:06.181Z,19.10
2019-03-13T06:26:06.190Z,19.14
2019-03-13T06:27:06.087Z,19.11
2019-03-13T06:28:06.037Z,19.11
2019-03-13T06:29:05.988Z,19.21
2019-03-13T06:30:05.991Z,19.10
2019-03-13T06:31:05.893Z,19.11
2019-03-13T06:32:05.847Z,19.18
2019-03-13T06:33:05.797Z,19.11
2019-03-13T06:34:05.750Z,19.22
2019-03-13T06:35:05.702Z,19.18
2019-03-13T06:36:05.654Z,19.07
2019-03-13T06:37:05.606Z,19.18
2019-03-13T06:38:05.558Z,19.21
2019-03-13T06:39:05.511Z,19.21
2019-03-13T06:40:05.465Z,19.21
2019-03-13T06:41:05.535Z,19.19
2019-03-13T06:42:05.367Z,19.19
2019-03-13T06:43:05.319Z,19.13
2019-03-13T06:44:05.276Z,19.14
2019-03-13T06:45:05.226Z,19.21
2019-03-13T06:46:05.176Z,19.21
2019-03-13T06:47:05.129Z,19.16
2019-03-13T06:48:05.081Z,19.16
2019-03-13T06:49:05.032Z,19.18
2019-03-13T06:50:04.984Z,19.21
2019-03-13T06:51:05.048Z,19.21
2019-03-13T06:52:04.894Z,19.21
2019-03-13T06:53:04.841Z,19.22
2019-03-13T06:54:04.793Z,19.26
2019-03-13T06:55:04.745Z,19.25
2019-03-13T06:56:04.698Z,19.14
2019-03-13T06:57:04.650Z,19.14
2019-03-13T06:58:04.602Z,19.19
2019-03-13T06:59:04.557Z,19.31
2019-03-13T07:00:04.507Z,19.23
2019-03-13T07:01:04.459Z,19.32
2019-03-13T07:02:04.410Z,19.32
2019-03-13T07:03:04.364Z,19.26
2019-03-13T07:04:04.316Z,19.39
2019-03-13T07:05:04.270Z,19.37
2019-03-13T07:06:04.218Z,19.33
2019-03-13T07:07:04.171Z,19.47
2019-03-13T07:08:04.123Z,19.47
2019-03-13T07:09:04.081Z,19.48
2019-03-13T07:10:04.027Z,19.51
2019-03-13T07:11:03.980Z,19.65
2019-03-13T07:12:03.988Z,19.86
2019-03-13T07:13:03.885Z,19.86
2019-03-13T07:14:03.837Z,20.14
2019-03-13T07:15:03.790Z,20.31
2019-03-13T07:16:03.743Z,20.31
2019-03-13T07:17:03.693Z,20.33
2019-03-13T07:18:03.648Z,20.58
2019-03-13T07:19:03.598Z,20.79
2019-03-13T07:20:03.552Z,20.82
2019-03-13T07:21:03.508Z,20.92
2019-03-13T07:22:03.463Z,20.82
2019-03-13T07:23:03.484Z,20.88
2019-03-13T07:24:03.362Z,20.79
2019-03-13T07:25:03.314Z,20.74
2019-03-13T07:26:03.266Z,20.70
2019-03-13T07:27:03.220Z,20.73
2019-03-13T07:28:03.170Z,20.67
2019-03-13T07:29:12.095Z,20.69
2019-03-13T07:30:03.077Z,20.69
2019-03-13T07:31:03.029Z,20.54
2019-03-13T07:32:02.982Z,20.57
2019-03-13T07:33:02.983Z,20.57
2019-03-13T07:34:02.886Z,20.58
2019-03-13T07:35:02.840Z,20.58
2019-03-13T07:36:02.799Z,20.59
2019-03-13T07:37:02.743Z,20.72
2019-03-13T07:38:02.764Z,20.69
2019-03-13T07:39:02.650Z,20.79
2019-03-13T07:40:02.603Z,20.76
2019-03-13T07:41:02.604Z,20.73
2019-03-13T07:42:02.507Z,20.73
2019-03-13T07:43:02.459Z,20.88
2019-03-13T07:44:02.417Z,20.94
2019-03-13T07:45:02.365Z,21.09
2019-03-13T07:46:02.316Z,21.13
2019-03-13T07:47:02.272Z,21.17
2019-03-13T07:48:02.223Z,21.24
2019-03-13T07:49:02.176Z,21.25
2019-03-13T07:50:02.127Z,21.28
2019-03-13T07:51:02.082Z,21.35
2019-03-13T07:52:02.033Z,21.31
2019-03-13T07:53:01.994Z,21.29
2019-03-13T07:54:01.942Z,21.21
2019-03-13T07:55:01.892Z,21.21
2019-03-13T07:56:01.847Z,21.07
2019-03-13T07:57:01.798Z,21.24
2019-03-13T07:58:01.752Z,21.16
2019-03-13T07:59:01.705Z,21.14
2019-03-13T08:00:01.749Z,21.13
2019-03-13T08:01:01.608Z,21.13
2019-03-13T08:02:01.561Z,21.03
2019-03-13T08:03:01.513Z,21.09
2019-03-13T08:04:01.536Z,21.16
2019-03-13T08:05:01.418Z,21.19
2019-03-13T08:06:01.423Z,21.31
2019-03-13T08:07:01.325Z,21.40
2019-03-13T08:08:01.279Z,21.56
2019-03-13T08:09:01.229Z,21.64
2019-03-13T08:10:01.183Z,21.80
2019-03-13T08:11:01.136Z,21.98
2019-03-13T08:12:01.090Z,22.05
2019-03-13T08:13:01.041Z,22.03
2019-03-13T08:14:00.994Z,22.21
2019-03-13T08:15:00.998Z,22.31
2019-03-13T08:16:00.901Z,22.28
2019-03-13T08:17:00.857Z,22.35
2019-03-13T08:18:00.807Z,22.39
2019-03-13T08:19:00.759Z,22.42
2019-03-13T08:20:00.725Z,22.45
2019-03-13T08:21:00.667Z,22.49
2019-03-13T08:22:00.622Z,22.46
2019-03-13T08:23:00.581Z,22.55
2019-03-13T08:24:00.526Z,22.57
2019-03-13T08:25:00.523Z,22.65
2019-03-13T08:26:00.434Z,22.65
2019-03-13T08:27:00.386Z,22.61
2019-03-13T08:28:00.352Z,22.62
2019-03-13T08:29:00.291Z,22.60
2019-03-13T08:30:00.383Z,22.64
2019-03-13T08:31:00.199Z,22.61
2019-03-13T08:32:00.153Z,22.72
2019-03-13T08:33:00.106Z,22.67
2019-03-13T08:34:00.059Z,22.54
2019-03-13T08:35:00.013Z,22.58
2019-03-13T08:35:59.980Z,22.57
2019-03-13T08:36:59.971Z,22.57
2019-03-13T08:37:59.874Z,22.58
2019-03-13T08:38:59.976Z,22.57
2019-03-13T08:39:59.781Z,22.61
2019-03-13T08:40:59.735Z,22.68
2019-03-13T08:41:59.688Z,22.68
2019-03-13T08:42:59.639Z,22.60
2019-03-13T08:43:59.593Z,22.60
2019-03-13T08:44:59.545Z,22.57
2019-03-13T08:45:59.501Z,22.58
2019-03-13T08:46:59.459Z,22.60
2019-03-13T08:47:59.405Z,22.52
2019-03-13T08:48:59.358Z,22.42
2019-03-13T08:49:59.313Z,22.27
2019-03-13T08:50:59.267Z,22.25
2019-03-13T08:51:59.219Z,22.28
2019-03-13T08:52:59.173Z,22.20
2019-03-13T08:53:59.127Z,22.17
2019-03-13T08:54:59.079Z,22.18
2019-03-13T08:55:59.033Z,22.22
2019-03-13T08:56:58.985Z,22.28
2019-03-13T08:57:58.939Z,22.31
2019-03-13T08:58:58.894Z,22.20
2019-03-13T08:59:58.848Z,22.24
2019-03-13T09:00:58.800Z,22.20
2019-03-13T09:01:58.755Z,22.14
2019-03-13T09:02:58.711Z,22.12
2019-03-13T09:03:58.663Z,22.05
2019-03-13T09:04:58.613Z,22.09
2019-03-13T09:05:58.567Z,22.06
2019-03-13T09:06:58.523Z,22.05
2019-03-13T09:07:58.474Z,22.05
2019-03-13T09:08:58.427Z,22.09
2019-03-13T09:09:58.413Z,22.07
2019-03-13T09:10:58.333Z,22.06
2019-03-13T09:11:58.287Z,22.14
2019-03-13T09:13:01.407Z,22.03
2019-03-13T09:13:58.193Z,21.98
2019-03-13T09:14:58.145Z,21.99
2019-03-13T09:15:58.100Z,22.00
2019-03-13T09:16:58.052Z,21.92
2019-03-13T09:17:58.007Z,22.02
2019-03-13T09:18:58.009Z,22.03
2019-03-13T09:19:57.913Z,21.94
2019-03-13T09:20:57.865Z,22.05
2019-03-13T09:21:57.821Z,21.88
2019-03-13T09:22:57.773Z,21.80
2019-03-13T09:23:57.725Z,21.96
2019-03-13T09:25:10.698Z,21.92
2019-03-13T09:25:57.634Z,21.99
2019-03-13T09:26:57.635Z,21.94
2019-03-13T09:27:57.539Z,22.00
2019-03-13T09:28:57.491Z,21.86
2019-03-13T09:29:57.445Z,21.86
2019-03-13T09:30:57.401Z,21.80
2019-03-13T09:31:57.352Z,21.86
2019-03-13T09:32:57.308Z,21.86
2019-03-13T09:33:57.256Z,21.83
2019-03-13T09:34:57.213Z,21.79
2019-03-13T09:35:57.164Z,21.80
2019-03-13T09:36:57.123Z,21.75
2019-03-13T09:37:57.074Z,21.82
2019-03-13T09:38:57.024Z,21.86
2019-03-13T09:39:56.978Z,21.82
2019-03-13T09:40:56.980Z,21.79
2019-03-13T09:41:56.884Z,21.75
2019-03-13T09:42:56.840Z,21.62
2019-03-13T09:43:59.698Z,21.69
2019-03-13T09:44:56.743Z,21.64
2019-03-13T09:45:56.696Z,21.62
2019-03-13T09:46:56.649Z,21.53
2019-03-13T09:47:56.621Z,21.49
2019-03-13T09:48:56.556Z,21.49
2019-03-13T09:49:56.507Z,21.47
2019-03-13T09:50:56.461Z,21.44
2019-03-13T09:51:56.415Z,21.50
2019-03-13T09:52:56.369Z,21.40
2019-03-13T09:53:56.322Z,21.40
2019-03-13T09:54:56.274Z,21.47
2019-03-13T09:55:56.233Z,21.40
2019-03-13T09:56:56.180Z,21.40
2019-03-13T09:57:56.134Z,21.35
2019-03-13T09:58:56.087Z,21.27
2019-03-13T09:59:56.140Z,21.29
2019-03-13T10:00:55.993Z,21.25
2019-03-13T10:01:55.946Z,21.22
2019-03-13T10:02:55.903Z,21.17
2019-03-13T10:03:55.856Z,21.34
2019-03-13T10:04:55.805Z,21.27
2019-03-13T10:05:55.757Z,21.28
2019-03-13T10:06:55.716Z,21.32
2019-03-13T10:07:55.666Z,21.34
2019-03-13T10:08:55.618Z,21.29
2019-03-13T10:09:55.574Z,21.24
2019-03-13T10:10:55.524Z,21.17
2019-03-13T10:11:55.476Z,21.22
2019-03-13T10:12:55.429Z,21.27
2019-03-13T10:13:55.383Z,21.21
2019-03-13T10:14:55.336Z,21.25
2019-03-13T10:15:55.290Z,21.16
2019-03-13T10:16:55.242Z,21.19
2019-03-13T10:17:55.196Z,21.25
2019-03-13T10:18:55.148Z,21.09
2019-03-13T10:19:55.101Z,21.09
2019-03-13T10:20:55.054Z,21.13
2019-03-13T10:21:55.007Z,21.16
2019-03-13T10:22:54.960Z,21.06
2019-03-13T10:23:54.915Z,21.12
2019-03-13T10:24:54.866Z,21.06
2019-03-13T10:25:54.823Z,21.10
2019-03-13T10:26:54.782Z,21.07
2019-03-13T10:27:54.725Z,21.12
2019-03-13T10:28:54.677Z,21.13
2019-03-13T10:29:54.631Z,21.07
2019-03-13T10:30:54.583Z,21.12
2019-03-13T10:31:54.537Z,21.16
2019-03-13T10:32:54.490Z,21.10
2019-03-13T10:33:54.443Z,21.12
2019-03-13T10:34:54.399Z,21.17
2019-03-13T10:35:54.350Z,21.24
2019-03-13T10:36:54.331Z,21.27
2019-03-13T10:37:54.268Z,21.16
2019-03-13T10:38:54.208Z,21.16
2019-03-13T10:39:54.196Z,21.29
2019-03-13T10:40:54.114Z,21.21
2019-03-13T10:41:54.068Z,21.24
2019-03-13T10:42:54.020Z,21.27
2019-03-13T10:43:54.027Z,21.31
2019-03-13T10:44:53.927Z,21.22
2019-03-13T10:45:53.880Z,21.19
2019-03-13T10:46:53.833Z,21.22
2019-03-13T10:47:53.785Z,21.19
2019-03-13T10:48:53.766Z,21.22
2019-03-13T10:49:53.692Z,21.24
2019-03-13T10:50:53.692Z,21.27
2019-03-13T10:51:53.598Z,21.21
2019-03-13T10:52:53.550Z,21.25
2019-03-13T10:53:53.504Z,21.24
2019-03-13T10:54:53.466Z,21.24
2019-03-13T10:55:55.121Z,21.22
2019-03-13T10:56:53.364Z,21.22
2019-03-13T10:57:53.316Z,21.22
2019-03-13T10:58:53.370Z,21.21
2019-03-13T10:59:53.223Z,21.21
2019-03-13T11:00:53.175Z,21.21
2019-03-13T11:01:53.127Z,21.21
2019-03-13T11:02:53.082Z,21.19
2019-03-13T11:03:53.036Z,21.19
2019-03-13T11:04:52.987Z,21.13
2019-03-13T11:05:52.993Z,21.16
2019-03-13T11:06:55.335Z,21.21
2019-03-13T11:07:52.847Z,21.21
2019-03-13T11:08:52.799Z,21.09
2019-03-13T11:09:52.754Z,21.16
2019-03-13T11:10:52.706Z,21.21
2019-03-13T11:11:52.659Z,21.13
2019-03-13T11:12:52.613Z,21.12
2019-03-13T11:13:52.565Z,21.16
2019-03-13T11:14:52.517Z,21.07
2019-03-13T11:15:52.471Z,21.10
2019-03-13T11:16:52.426Z,21.07
2019-03-13T11:17:52.375Z,21.19
2019-03-13T11:18:52.332Z,21.09
2019-03-13T11:19:52.284Z,21.10
2019-03-13T11:20:52.238Z,21.10
2019-03-13T11:21:52.190Z,21.10
2019-03-13T11:22:52.141Z,21.16
2019-03-13T11:23:52.095Z,21.10
2019-03-13T11:24:52.048Z,21.22
2019-03-13T11:25:52.000Z,21.12
2019-03-13T11:26:51.956Z,21.09
2019-03-13T11:27:51.957Z,21.04
2019-03-13T11:28:51.858Z,21.03
2019-03-13T11:29:51.812Z,21.03
2019-03-13T11:30:51.766Z,21.01
2019-03-13T11:31:51.723Z,21.03
2019-03-13T11:32:51.670Z,20.94
2019-03-13T11:33:51.623Z,20.94
2019-03-13T11:34:51.580Z,20.85
2019-03-13T11:35:51.531Z,20.80
2019-03-13T11:36:51.482Z,20.79
2019-03-13T11:37:51.438Z,20.79
2019-03-13T11:38:51.388Z,20.85
2019-03-13T11:39:51.344Z,20.82
2019-03-13T11:40:51.294Z,20.82
2019-03-13T11:41:51.252Z,20.85
2019-03-13T11:42:51.200Z,20.82
2019-03-13T11:43:51.175Z,20.85
2019-03-13T11:44:51.106Z,20.80
2019-03-13T11:45:51.058Z,20.80
2019-03-13T11:46:51.011Z,20.82
2019-03-13T11:47:50.965Z,20.84
2019-03-13T11:48:51.017Z,20.85
2019-03-13T11:49:50.875Z,20.82
2019-03-13T11:50:50.823Z,20.77
2019-03-13T11:51:50.779Z,20.74
2019-03-13T11:52:50.731Z,20.76
2019-03-13T11:53:50.681Z,20.84
2019-03-13T11:54:50.639Z,20.77
2019-03-13T11:55:50.588Z,20.69
2019-03-13T11:56:50.544Z,20.64
2019-03-13T11:57:50.494Z,20.70
2019-03-13T11:58:50.447Z,20.66
2019-03-13T11:59:50.400Z,20.62
2019-03-13T12:00:50.355Z,20.74
2019-03-13T12:01:50.305Z,20.72
2019-03-13T12:02:50.257Z,20.51
2019-03-13T12:03:50.211Z,20.55
2019-03-13T12:04:50.162Z,20.57
2019-03-13T12:05:50.118Z,20.51
2019-03-13T12:06:50.070Z,20.54
2019-03-13T12:07:50.023Z,20.55
2019-03-13T12:08:49.974Z,20.57
2019-03-13T12:09:49.927Z,20.58
2019-03-13T12:10:49.881Z,20.55
2019-03-13T12:11:49.833Z,20.50
2019-03-13T12:12:49.789Z,20.55
2019-03-13T12:13:49.738Z,20.50
2019-03-13T12:14:49.691Z,20.51
2019-03-13T12:15:49.645Z,20.47
2019-03-13T12:16:49.600Z,20.48
2019-03-13T12:17:49.549Z,20.42
2019-03-13T12:18:49.503Z,20.41
2019-03-13T12:19:49.456Z,20.47
2019-03-13T12:20:49.408Z,20.50
2019-03-13T12:21:49.360Z,20.42
2019-03-13T12:22:49.313Z,20.41
2019-03-13T12:23:49.265Z,20.39
2019-03-13T12:24:49.219Z,20.39
2019-03-13T12:25:49.172Z,20.36
2019-03-13T12:26:49.125Z,20.38
2019-03-13T12:27:49.080Z,20.39
2019-03-13T12:28:49.030Z,20.38
2019-03-13T12:29:48.986Z,20.39
2019-03-13T12:30:48.936Z,20.32
2019-03-13T12:31:48.895Z,20.36
2019-03-13T12:32:48.844Z,20.36
2019-03-13T12:33:48.800Z,20.31
2019-03-13T12:34:48.746Z,20.32
2019-03-13T12:35:48.698Z,20.33
2019-03-13T12:36:48.652Z,20.31
2019-03-13T12:37:48.605Z,20.32
2019-03-13T12:38:48.558Z,20.36
2019-03-13T12:39:48.511Z,20.29
2019-03-13T12:40:48.462Z,20.36
2019-03-13T12:41:48.414Z,20.32
2019-03-13T12:42:48.369Z,20.41
2019-03-13T12:43:51.277Z,20.52
2019-03-13T12:44:48.273Z,20.48
2019-03-13T12:45:48.225Z,20.38
2019-03-13T12:46:48.180Z,20.47
2019-03-13T12:47:48.131Z,20.38
2019-03-13T12:48:48.084Z,20.42
2019-03-13T12:49:48.036Z,20.48
2019-03-13T12:50:47.989Z,20.42
2019-03-13T12:51:47.943Z,20.43